createdAt,value
2019-02-28T00:02:40.966Z,25
2019-02-28T00:05:47.074Z,25
2019-02-28T00:08:54.433Z,25.1
2019-02-28T00:12:00.338Z,25.1
2019-02-28T00:15:06.224Z,25.1
2019-02-28T00:18:16.682Z,25.1
2019-02-28T00:21:22.766Z,25.1
2019-02-28T00:24:31.276Z,25.1
2019-02-28T00:27:37.235Z,25.1
2019-02-28T00:30:43.129Z,25.1
2019-02-28T00:33:49.257Z,25.2
2019-02-28T00:36:55.234Z,25.3
2019-02-28T00:40:01.129Z,25.2
2019-02-28T00:43:10.626Z,25.3
2019-02-28T00:46:16.526Z,25.3
2019-02-28T00:49:25.120Z,25.3
2019-02-28T00:52:36.090Z,25.4
2019-02-28T00:55:42.130Z,25.4
2019-02-28T00:58:51.776Z,25.3
2019-02-28T01:01:57.838Z,25.4
2019-02-28T01:05:06.369Z,25.6
2019-02-28T01:08:12.326Z,25.4
2019-02-28T01:11:23.328Z,25.3
2019-02-28T01:14:29.360Z,25.2
2019-02-28T01:17:41.472Z,25.2
2019-02-28T01:20:50.823Z,25.2
2019-02-28T01:23:56.865Z,25.2
2019-02-28T01:27:06.610Z,25.2
2019-02-28T01:30:12.580Z,25.2
2019-02-28T01:33:24.542Z,25.2
2019-02-28T01:36:31.040Z,25.2
2019-02-28T01:39:37.029Z,25.1
2019-02-28T01:42:43.074Z,25.1
2019-02-28T01:45:49.254Z,25.1
2019-02-28T01:48:55.940Z,25.1
2019-02-28T01:52:02.085Z,25
2019-02-28T01:55:13.765Z,25
2019-02-28T01:58:19.740Z,25
2019-02-28T02:01:28.398Z,25
2019-02-28T02:04:37.286Z,25.1
2019-02-28T02:07:48.585Z,25.1
2019-02-28T02:10:56.587Z,25.3
2019-02-28T02:14:02.639Z,25
2019-02-28T02:17:14.945Z,24.9
2019-02-28T02:20:23.364Z,25
2019-02-28T02:23:32.392Z,24.9
2019-02-28T02:26:38.273Z,25.1
2019-02-28T02:29:50.365Z,24.9
2019-02-28T02:32:56.425Z,24.7
2019-02-28T02:36:02.561Z,24.7
2019-02-28T02:39:08.673Z,24.7
2019-02-28T02:42:22.600Z,24.6
2019-02-28T02:45:28.678Z,24.5
2019-02-28T02:48:38.444Z,24.6
2019-02-28T02:51:51.234Z,24.5
2019-02-28T02:54:57.292Z,24.5
2019-02-28T02:58:03.345Z,24.5
2019-02-28T03:01:09.506Z,24.6
2019-02-28T03:04:23.445Z,24.4
2019-02-28T03:07:29.416Z,24.5
2019-02-28T03:10:35.498Z,24.6
2019-02-28T03:13:44.618Z,24.2
2019-02-28T03:16:50.670Z,24.4
2019-02-28T03:19:56.835Z,24.2
2019-02-28T03:23:03.922Z,24.2
2019-02-28T03:26:10.002Z,24.2
2019-02-28T03:29:16.158Z,24.2
2019-02-28T03:32:22.451Z,24.1
2019-02-28T03:35:45.035Z,24
2019-02-28T03:38:50.943Z,24.1
2019-02-28T03:41:57.097Z,24.1
2019-02-28T03:45:03.196Z,24.1
2019-02-28T03:48:09.327Z,24.2
2019-02-28T03:51:15.383Z,24
2019-02-28T03:54:21.440Z,24.1
2019-02-28T03:57:32.738Z,24
2019-02-28T04:00:38.923Z,23.9
2019-02-28T04:03:45.066Z,24.1
2019-02-28T04:06:51.122Z,23.9
2019-02-28T04:09:57.184Z,23.9
2019-02-28T04:13:03.359Z,23.6
2019-02-28T04:16:10.552Z,23.5
2019-02-28T04:19:23.024Z,23.5
2019-02-28T04:22:29.310Z,23.4
2019-02-28T04:25:35.381Z,23.8
2019-02-28T04:28:41.537Z,23.8
2019-02-28T04:31:54.608Z,23.4
2019-02-28T04:35:02.985Z,23.5
2019-02-28T04:38:08.940Z,23.6
2019-02-28T04:41:14.839Z,23.3
2019-02-28T04:44:20.965Z,23.2
2019-02-28T04:47:26.928Z,23.2
2019-02-28T04:50:32.884Z,23.2
2019-02-28T04:53:38.848Z,23.1
2019-02-28T04:56:46.549Z,23.1
2019-02-28T04:59:55.168Z,23.1
2019-02-28T05:03:01.090Z,23.1
2019-02-28T05:06:07.091Z,23.1
2019-02-28T05:09:15.975Z,23.1
2019-02-28T05:12:22.102Z,23.1
2019-02-28T05:15:28.018Z,23.1
2019-02-28T05:18:42.401Z,23
2019-02-28T05:21:54.326Z,22.9
2019-02-28T05:25:00.375Z,22.9
2019-02-28T05:28:08.183Z,22.9
2019-02-28T05:31:14.104Z,22.8
2019-02-28T05:34:20.080Z,22.8
2019-02-28T05:37:26.047Z,22.8
2019-02-28T05:40:32.008Z,22.8
2019-02-28T05:43:43.998Z,23
2019-02-28T05:46:50.004Z,22.9
2019-02-28T05:50:01.149Z,23.1
2019-02-28T05:53:10.476Z,24.1
2019-02-28T05:56:16.367Z,24
2019-02-28T05:59:27.521Z,24.2
2019-02-28T06:02:33.451Z,24.1
2019-02-28T06:05:39.771Z,24.1
2019-02-28T06:08:51.267Z,24
2019-02-28T06:11:57.302Z,23.7
2019-02-28T06:15:04.400Z,23.7
2019-02-28T06:18:10.465Z,24
2019-02-28T06:21:16.527Z,23.5
2019-02-28T06:24:26.058Z,23.5
2019-02-28T06:27:45.704Z,23.7
2019-02-28T06:30:56.013Z,23.7
2019-02-28T06:34:09.293Z,24.3
2019-02-28T06:37:15.397Z,23.7
2019-02-28T06:40:21.360Z,23.7
2019-02-28T06:43:27.358Z,24.1
2019-02-28T06:46:33.313Z,24.4
2019-02-28T06:49:42.757Z,25
2019-02-28T06:52:48.811Z,24.4
2019-02-28T06:56:00.201Z,24.9
2019-02-28T06:59:06.282Z,24.2
2019-02-28T07:02:12.329Z,23.9
2019-02-28T07:05:18.265Z,24
2019-02-28T07:08:31.111Z,24.1
2019-02-28T07:11:37.004Z,24.1
2019-02-28T07:14:49.565Z,24.2
2019-02-28T07:17:55.513Z,24.2
2019-02-28T07:21:01.398Z,24.1
2019-02-28T07:24:10.532Z,24.3
2019-02-28T07:27:16.404Z,24.1
2019-02-28T07:30:28.506Z,23.7
2019-02-28T07:33:37.539Z,23.9
2019-02-28T07:36:49.502Z,24
2019-02-28T07:39:55.485Z,23.8
2019-02-28T07:43:01.956Z,23.9
2019-02-28T07:46:13.180Z,23.7
2019-02-28T07:49:19.372Z,23.7
2019-02-28T07:52:33.758Z,23.4
2019-02-28T07:55:39.969Z,23.4
2019-02-28T07:58:46.298Z,23.2
2019-02-28T08:01:53.282Z,23.5
2019-02-28T08:05:05.324Z,23.7
2019-02-28T08:08:11.244Z,23.3
2019-02-28T08:11:20.832Z,23
2019-02-28T08:14:27.014Z,22.8
2019-02-28T08:17:36.005Z,23.1
2019-02-28T08:20:48.395Z,23.1
2019-02-28T08:23:54.485Z,23.2
2019-02-28T08:27:00.452Z,22.8
2019-02-28T08:30:06.621Z,22.5
2019-02-28T08:33:17.168Z,22.4
2019-02-28T08:36:26.194Z,22.9
2019-02-28T08:39:35.537Z,22.3
2019-02-28T08:42:46.102Z,22.1
2019-02-28T08:45:54.218Z,22.2
2019-02-28T08:49:06.069Z,22.3
2019-02-28T08:52:22.008Z,22
2019-02-28T08:55:29.931Z,21.9
2019-02-28T08:58:39.687Z,22.2
2019-02-28T09:01:47.686Z,21.7
2019-02-28T09:04:53.633Z,21.5
2019-02-28T09:07:59.790Z,22.2
2019-02-28T09:11:05.740Z,21.6
2019-02-28T09:14:11.682Z,21.3
2019-02-28T09:17:23.403Z,21.7
2019-02-28T09:20:29.477Z,21.7
2019-02-28T09:23:38.839Z,21.7
2019-02-28T09:26:46.151Z,21.7
2019-02-28T09:29:55.574Z,21.5
2019-02-28T09:33:01.702Z,21.6
2019-02-28T09:36:10.453Z,21.7
2019-02-28T09:39:23.047Z,21.6
2019-02-28T09:42:28.997Z,21.7
2019-02-28T09:45:34.888Z,21.5
2019-02-28T09:48:44.925Z,21.6
2019-02-28T09:51:51.084Z,21.4
2019-02-28T09:55:00.322Z,21.7
2019-02-28T09:58:06.386Z,21.9
2019-02-28T10:01:12.436Z,21.7
2019-02-28T10:04:18.320Z,21.4
2019-02-28T10:07:27.237Z,21.9
2019-02-28T10:10:33.288Z,21.6
2019-02-28T10:13:39.186Z,21.7
2019-02-28T10:16:45.102Z,21.5
2019-02-28T10:19:57.479Z,21.5
2019-02-28T10:23:03.526Z,21.6
2019-02-28T10:26:09.552Z,21.5
2019-02-28T10:29:20.813Z,21.4
2019-02-28T10:32:26.783Z,21.3
2019-02-28T10:35:36.674Z,21.4
2019-02-28T10:38:43.519Z,21.2
2019-02-28T10:41:49.535Z,21.2
2019-02-28T10:44:55.551Z,21.4
2019-02-28T10:48:04.521Z,21.2
2019-02-28T10:51:14.639Z,21.1
2019-02-28T10:54:20.613Z,21.1
2019-02-28T10:57:26.473Z,21.1
2019-02-28T11:00:33.973Z,21
2019-02-28T11:03:40.314Z,21.1
2019-02-28T11:06:47.523Z,21.1
2019-02-28T11:09:59.782Z,21.1
2019-02-28T11:13:07.718Z,21.1
2019-02-28T11:16:13.617Z,21.1
2019-02-28T11:19:25.061Z,21.2
2019-02-28T11:22:31.033Z,21.1
2019-02-28T11:25:43.763Z,21.4
2019-02-28T11:28:49.806Z,21.2
2019-02-28T11:31:56.102Z,21.1
2019-02-28T11:35:03.996Z,21.3
2019-02-28T11:38:09.957Z,21.3
2019-02-28T11:41:21.850Z,21.8
2019-02-28T11:44:28.228Z,21.6
2019-02-28T11:47:34.335Z,22.4
2019-02-28T11:50:45.031Z,21.4
2019-02-28T11:53:51.212Z,22
2019-02-28T11:56:57.175Z,21.7
2019-02-28T12:00:11.327Z,21.7
2019-02-28T12:03:19.109Z,21.3
2019-02-28T12:06:26.831Z,21.5
2019-02-28T12:09:32.800Z,21.5
2019-02-28T12:12:41.517Z,21.7
2019-02-28T12:15:51.037Z,21.6
2019-02-28T12:18:56.926Z,21.5
2019-02-28T12:22:03.178Z,21.3
2019-02-28T12:25:17.677Z,21.2
2019-02-28T12:28:23.920Z,21.1
2019-02-28T12:31:35.580Z,21.2
2019-02-28T12:34:42.579Z,21.2
2019-02-28T12:37:53.843Z,21.1
2019-02-28T12:41:00.783Z,20.9
2019-02-28T12:44:06.814Z,21
2019-02-28T12:47:17.993Z,20.9
2019-02-28T12:50:24.158Z,20.8
2019-02-28T12:53:34.832Z,20.9
2019-02-28T12:56:40.904Z,21.1
2019-02-28T12:59:52.322Z,20.8
2019-02-28T13:02:58.283Z,21
2019-02-28T13:06:04.405Z,21
2019-02-28T13:09:13.571Z,20.8
2019-02-28T13:12:24.921Z,20.8
2019-02-28T13:15:30.994Z,20.8
2019-02-28T13:18:43.570Z,20.6
2019-02-28T13:21:49.868Z,20.4
2019-02-28T13:24:55.849Z,20.6
2019-02-28T13:28:02.220Z,20.6
2019-02-28T13:31:08.848Z,20.7
2019-02-28T13:34:15.056Z,20.6
2019-02-28T13:37:21.107Z,20.6
2019-02-28T13:40:27.356Z,20.6
2019-02-28T13:43:33.354Z,20.5
2019-02-28T13:46:39.735Z,20.7
2019-02-28T13:49:49.722Z,20.8
2019-02-28T13:52:56.405Z,20.7
2019-02-28T13:56:34.647Z,21.1
2019-02-28T13:59:43.477Z,20.8
2019-02-28T14:02:49.535Z,20.5
2019-02-28T14:05:55.592Z,21.2
2019-02-28T14:09:02.704Z,21.6
2019-02-28T14:12:09.146Z,22.3
2019-02-28T14:15:24.979Z,21.9
2019-02-28T14:18:32.336Z,21.9
2019-02-28T14:21:38.406Z,20.5
2019-02-28T14:24:46.544Z,21.3
2019-02-28T14:27:53.531Z,20.9
2019-02-28T14:31:05.806Z,20.6
2019-02-28T14:34:11.770Z,20.5
2019-02-28T14:37:20.463Z,20.4
2019-02-28T14:40:26.570Z,20.7
2019-02-28T14:43:32.552Z,20.4
2019-02-28T14:46:38.603Z,20.5
2019-02-28T14:49:45.355Z,20.3
2019-02-28T14:52:51.424Z,20.3
2019-02-28T14:55:57.384Z,20.1
2019-02-28T14:59:09.375Z,20.6
2019-02-28T15:02:15.351Z,20.3
2019-02-28T15:05:22.328Z,20.2
2019-02-28T15:08:29.251Z,20
2019-02-28T15:11:35.263Z,20
2019-02-28T15:14:44.026Z,20.2
2019-02-28T15:17:50.055Z,20.1
2019-02-28T15:20:56.124Z,20.1
2019-02-28T15:24:02.279Z,19.9
2019-02-28T15:27:14.385Z,20
2019-02-28T15:30:20.348Z,19.9
2019-02-28T15:33:30.468Z,19.8
2019-02-28T15:36:36.663Z,19.8
2019-02-28T15:39:45.092Z,19.5
2019-02-28T15:42:55.061Z,19.5
2019-02-28T15:46:01.215Z,19.7
2019-02-28T15:49:14.067Z,19.5
2019-02-28T15:52:20.207Z,19.6
2019-02-28T15:55:26.238Z,19.6
2019-02-28T15:58:32.218Z,19.5
2019-02-28T16:01:45.249Z,19.5
2019-02-28T16:04:51.215Z,19.4
2019-02-28T16:08:11.512Z,19.3
2019-02-28T16:11:17.464Z,19.2
2019-02-28T16:14:23.613Z,19
2019-02-28T16:17:29.494Z,19.1
2019-02-28T16:20:41.584Z,19
2019-02-28T16:23:47.534Z,18.8
2019-02-28T16:26:56.712Z,18.8
2019-02-28T16:30:03.558Z,18.7
2019-02-28T16:33:09.458Z,18.8
2019-02-28T16:36:16.603Z,18.9
2019-02-28T16:39:31.063Z,18.6
2019-02-28T16:42:36.935Z,18.5
2019-02-28T16:45:49.135Z,18.5
2019-02-28T16:48:55.099Z,18.5
2019-02-28T16:52:05.958Z,18.4
2019-02-28T16:55:12.536Z,18.4
2019-02-28T16:58:21.811Z,18.4
2019-02-28T17:01:28.682Z,18.4
2019-02-28T17:04:34.610Z,18.2
2019-02-28T17:07:44.540Z,18.2
2019-02-28T17:10:50.626Z,18.1
2019-02-28T17:13:56.688Z,18.1
2019-02-28T17:17:02.561Z,18
2019-02-28T17:20:14.445Z,17.9
2019-02-28T17:23:20.404Z,17.7
2019-02-28T17:26:31.782Z,17.7
2019-02-28T17:29:37.867Z,17.5
2019-02-28T17:32:43.814Z,17.6
2019-02-28T17:35:52.862Z,17.6
2019-02-28T17:38:58.716Z,17.5
2019-02-28T17:42:14.791Z,17.5
2019-02-28T17:45:21.484Z,17.6
2019-02-28T17:48:27.350Z,17.6
2019-02-28T17:51:33.393Z,17.5
2019-02-28T17:54:39.455Z,17.4
2019-02-28T17:57:45.330Z,17.4
2019-02-28T18:00:57.834Z,17.6
2019-02-28T18:04:03.910Z,17.4
2019-02-28T18:07:11.904Z,17.4
2019-02-28T18:10:20.930Z,17.5
2019-02-28T18:13:31.809Z,17.4
2019-02-28T18:16:37.965Z,17.4
2019-02-28T18:19:43.936Z,17.6
2019-02-28T18:22:55.625Z,17.6
2019-02-28T18:26:01.591Z,17.6
2019-02-28T18:29:07.549Z,17.6
2019-02-28T18:32:13.417Z,17.6
2019-02-28T18:35:19.568Z,17.6
2019-02-28T18:38:25.452Z,17.6
2019-02-28T18:41:31.590Z,17.6
2019-02-28T18:44:46.799Z,17.7
2019-02-28T18:47:52.726Z,17.7
2019-02-28T18:50:58.597Z,17.7
2019-02-28T18:54:04.755Z,17.7
2019-02-28T18:57:10.826Z,17.7
2019-02-28T19:00:16.870Z,17.8
2019-02-28T19:03:22.931Z,17.8
2019-02-28T19:06:31.839Z,17.8
2019-02-28T19:09:37.839Z,17.8
2019-02-28T19:12:44.241Z,17.9
2019-02-28T19:15:50.257Z,17.9
2019-02-28T19:18:56.214Z,18
2019-02-28T19:22:02.275Z,17.9
2019-02-28T19:25:08.247Z,18
2019-02-28T19:28:14.309Z,18
2019-02-28T19:31:20.204Z,18.1
2019-02-28T19:34:26.121Z,18.1
2019-02-28T19:37:32.105Z,18.1
2019-02-28T19:40:38.244Z,18.1
2019-02-28T19:43:44.308Z,18.1
2019-02-28T19:46:50.187Z,18.2
2019-02-28T19:49:56.224Z,18.3
2019-02-28T19:53:02.286Z,18.3
2019-02-28T19:56:08.452Z,18.3
2019-02-28T19:59:14.351Z,18.3
2019-02-28T20:02:20.370Z,18.3
2019-02-28T20:05:26.368Z,18.3
2019-02-28T20:08:32.401Z,18.4
2019-02-28T20:11:38.270Z,18.4
2019-02-28T20:14:44.328Z,18.4
2019-02-28T20:17:50.282Z,18.4
2019-02-28T20:20:56.282Z,18.5
2019-02-28T20:24:02.297Z,18.5
2019-02-28T20:27:08.360Z,18.6
2019-02-28T20:30:14.239Z,18.6
2019-02-28T20:33:20.158Z,18.6
2019-02-28T20:36:26.252Z,18.6
2019-02-28T20:39:32.302Z,18.7
2019-02-28T20:42:38.278Z,18.7
2019-02-28T20:45:44.554Z,18.7
2019-02-28T20:48:50.491Z,18.7
2019-02-28T20:51:56.447Z,18.7
2019-02-28T20:55:02.524Z,18.8
2019-02-28T20:58:08.515Z,18.9
2019-02-28T21:01:14.749Z,18.9
2019-02-28T21:04:20.708Z,18.9
2019-02-28T21:07:29.529Z,18.9
2019-02-28T21:10:35.405Z,18.9
2019-02-28T21:13:41.450Z,19.1
2019-02-28T21:16:47.412Z,19
2019-02-28T21:19:53.378Z,19.1
2019-02-28T21:23:02.302Z,19.1
2019-02-28T21:26:08.259Z,19
2019-02-28T21:29:14.219Z,19.1
2019-02-28T21:32:20.193Z,19.2
2019-02-28T21:35:26.246Z,19.3
2019-02-28T21:38:32.119Z,19.4
2019-02-28T21:41:38.370Z,19.6
2019-02-28T21:44:44.245Z,19.7
2019-02-28T21:47:50.285Z,19.8
2019-02-28T21:50:56.452Z,19.9
2019-02-28T21:54:04.495Z,19.9
2019-02-28T21:57:10.633Z,20.1
2019-02-28T22:00:16.628Z,20.2
2019-02-28T22:03:22.543Z,20.3
2019-02-28T22:06:28.605Z,20.3
2019-02-28T22:09:34.675Z,20.4
2019-02-28T22:12:40.744Z,20.5
2019-02-28T22:15:46.910Z,20.5
2019-02-28T22:18:52.973Z,20.7
2019-02-28T22:22:02.110Z,20.7
2019-02-28T22:25:08.070Z,20.8
2019-02-28T22:28:14.230Z,20.8
2019-02-28T22:31:20.293Z,21
2019-02-28T22:34:26.355Z,21
2019-02-28T22:37:32.415Z,21
2019-02-28T22:40:41.349Z,21.1
2019-02-28T22:43:47.529Z,21.1
2019-02-28T22:46:53.574Z,21.2
2019-02-28T22:49:59.546Z,21.3
2019-02-28T22:53:05.801Z,21.4
2019-02-28T22:56:11.867Z,21.5
2019-02-28T22:59:17.923Z,21.5
2019-02-28T23:02:23.887Z,21.5
2019-02-28T23:05:32.815Z,21.6
2019-02-28T23:08:38.970Z,21.7
2019-02-28T23:11:44.961Z,21.8
2019-02-28T23:14:53.347Z,21.8
2019-02-28T23:17:59.410Z,21.8
2019-02-28T23:21:05.472Z,21.9
2019-02-28T23:24:11.378Z,22
2019-02-28T23:27:17.701Z,22.1
2019-02-28T23:30:24.280Z,22.1
2019-02-28T23:33:30.344Z,22.1
2019-02-28T23:36:36.509Z,22.2
2019-02-28T23:39:42.613Z,22.2
2019-02-28T23:42:48.645Z,22.3
2019-02-28T23:45:54.666Z,22.3
2019-02-28T23:49:00.653Z,22.4
2019-02-28T23:52:06.610Z,22.3
2019-02-28T23:55:12.578Z,22.4
2019-02-28T23:58:18.643Z,22.5
